Time;durP1;ratioP1;P1;durP2;ratioP2;P2;SDS_P1;SDS_P2;PMS_P1;PMS_P2;Temp;Humidity;BMP_temperature;BMP_pressure;BME280_temperature;BME280_humidity;BME280_pressure;Samples;Min_cycle;Max_cycle;Signal;HPM_P1;HPM_P2
2021/10/12 00:00:59;;;;;;;24.00;12.47;;;;;;;7.85;100.00;100139.70;1742292;82;21013;-77
2021/10/12 00:03:26;;;;;;;22.07;12.47;;;;;;;7.82;100.00;100142.69;1742405;82;21018;-77
2021/10/12 00:05:52;;;;;;;25.63;13.47;;;;;;;7.79;100.00;100142.47;1742320;82;20981;-77
2021/10/12 00:08:19;;;;;;;22.23;12.43;;;;;;;7.76;100.00;100146.84;1741932;82;21041;-77
2021/10/12 00:10:46;;;;;;;24.13;12.83;;;;;;;7.72;100.00;100140.91;1742163;82;21126;-77
2021/10/12 00:13:13;;;;;;;26.93;13.13;;;;;;;7.73;100.00;100146.63;1741879;82;21040;-77
2021/10/12 00:15:40;;;;;;;22.60;12.57;;;;;;;7.74;100.00;100136.22;1742188;82;21554;-77
2021/10/12 00:18:07;;;;;;;24.87;13.20;;;;;;;7.82;100.00;100130.58;1741799;82;21073;-78
2021/10/12 00:20:35;;;;;;;25.17;12.97;;;;;;;7.88;100.00;100127.27;1742116;82;21093;-78
2021/10/12 00:23:02;;;;;;;24.53;12.80;;;;;;;7.94;100.00;100123.47;1742089;82;21029;-78
2021/10/12 00:25:28;;;;;;;26.87;13.70;;;;;;;8.02;100.00;100130.81;1742322;82;21037;-77
2021/10/12 00:27:55;;;;;;;29.13;12.87;;;;;;;8.08;100.00;100122.11;1741956;82;21041;-76
2021/10/12 00:30:22;;;;;;;25.03;12.90;;;;;;;8.15;100.00;100122.34;1742168;82;21492;-77
2021/10/12 00:32:49;;;;;;;24.63;13.20;;;;;;;8.19;100.00;100118.34;1750942;81;21026;-76
2021/10/12 00:35:16;;;;;;;25.07;12.83;;;;;;;8.24;100.00;100119.23;1756538;82;21025;-77
2021/10/12 00:37:44;;;;;;;25.93;13.53;;;;;;;8.27;100.00;100111.69;1756152;82;21049;-77
2021/10/12 00:40:11;;;;;;;27.17;13.10;;;;;;;8.29;100.00;100115.07;1723338;82;21509;-77
2021/10/12 00:42:38;;;;;;;24.27;12.93;;;;;;;8.32;100.00;100116.59;1714940;84;21046;-78
2021/10/12 00:45:08;;;;;;;23.10;12.20;;;;;;;8.32;100.00;100113.42;1715027;84;21042;-77
2021/10/12 00:47:36;;;;;;;27.03;12.90;;;;;;;8.33;100.00;100113.75;1750539;82;21488;-77
2021/10/12 00:50:05;;;;;;;22.83;12.53;;;;;;;8.36;100.00;100111.27;1756159;82;21045;-77
2021/10/12 00:52:35;;;;;;;25.77;13.53;;;;;;;8.38;100.00;100109.77;1756433;82;21061;-77
2021/10/12 00:55:05;;;;;;;28.00;13.67;;;;;;;8.39;100.00;100108.75;1756235;82;21041;-77
2021/10/12 00:57:32;;;;;;;27.47;12.23;;;;;;;8.39;100.00;100102.84;1756465;82;20998;-77
2021/10/12 00:59:59;;;;;;;28.17;13.03;;;;;;;8.40;100.00;100102.37;1756303;82;21034;-77
2021/10/12 01:02:25;;;;;;;22.90;12.60;;;;;;;8.41;100.00;100103.56;1756555;82;21045;-77
2021/10/12 01:04:52;;;;;;;24.67;13.03;;;;;;;8.41;100.00;100104.05;1756419;81;21025;-78
2021/10/12 01:07:19;;;;;;;22.27;12.83;;;;;;;8.40;100.00;100103.20;1756229;82;21022;-77
2021/10/12 01:09:46;;;;;;;25.20;13.40;;;;;;;8.38;100.00;100101.17;1756207;82;21065;-77
2021/10/12 01:12:12;;;;;;;26.63;13.30;;;;;;;8.36;100.00;100100.48;1756711;82;20998;-77
2021/10/12 01:14:41;;;;;;;25.30;12.57;;;;;;;8.33;100.00;100101.63;1756252;82;21073;-77
2021/10/12 01:17:07;;;;;;;22.93;11.80;;;;;;;8.31;100.00;100103.63;1756519;82;21061;-78
2021/10/12 01:19:34;;;;;;;21.87;12.30;;;;;;;8.29;100.00;100090.83;1756214;82;21061;-77
2021/10/12 01:22:01;;;;;;;24.10;12.10;;;;;;;8.27;100.00;100087.45;1726711;82;21041;-77
2021/10/12 01:24:27;;;;;;;28.50;13.23;;;;;;;8.24;100.00;100084.22;1756349;82;21543;-76
2021/10/12 01:26:54;;;;;;;24.63;12.70;;;;;;;8.20;100.00;100091.77;1756291;82;21066;-78
2021/10/12 01:29:20;;;;;;;22.50;12.60;;;;;;;8.17;100.00;100098.28;1756413;82;21041;-77
2021/10/12 01:31:47;;;;;;;24.33;12.63;;;;;;;8.12;100.00;100091.16;1757575;81;21495;-77
2021/10/12 01:34:16;;;;;;;24.70;13.20;;;;;;;8.10;100.00;100090.98;1773155;81;21021;-76
2021/10/12 01:36:43;;;;;;;24.43;13.27;;;;;;;8.06;100.00;100098.53;1773243;81;21064;-77
2021/10/12 01:39:09;;;;;;;27.17;13.87;;;;;;;8.01;100.00;100089.22;1761716;81;21483;-78
2021/10/12 01:41:37;;;;;;;24.57;12.87;;;;;;;7.95;100.00;100092.00;1741614;82;21095;-76
2021/10/12 01:44:04;;;;;;;25.97;13.40;;;;;;;7.92;100.00;100090.98;1742085;82;21036;-77
2021/10/12 01:46:31;;;;;;;25.63;12.13;;;;;;;7.87;100.00;100084.70;1743656;82;21062;-76
2021/10/12 01:48:57;;;;;;;24.63;12.43;;;;;;;7.83;100.00;100093.25;1746583;82;21088;-76
2021/10/12 01:51:24;;;;;;;21.63;11.60;;;;;;;7.79;100.00;100095.37;1746666;82;21038;-77
2021/10/12 01:53:51;;;;;;;26.37;13.03;;;;;;;7.75;100.00;100084.06;1746644;82;21539;-77
2021/10/12 01:56:18;;;;;;;28.20;11.80;;;;;;;7.70;100.00;100089.08;1746082;82;21082;-77
2021/10/12 01:58:50;;;;;;;23.50;11.90;;;;;;;7.66;100.00;100092.20;1746447;82;21018;-76
2021/10/12 02:01:20;;;;;;;23.53;12.10;;;;;;;7.61;100.00;100095.34;1741776;82;21523;-77
2021/10/12 02:03:46;;;;;;;22.63;12.87;;;;;;;7.56;100.00;100093.12;1743335;82;21579;-78
2021/10/12 02:06:14;;;;;;;24.50;13.13;;;;;;;7.53;100.00;100087.20;1746519;82;21062;-78
2021/10/12 02:08:41;;;;;;;30.53;13.30;;;;;;;7.50;100.00;100087.48;1746610;82;21042;-78
2021/10/12 02:11:07;;;;;;;25.80;13.50;;;;;;;7.46;100.00;100082.91;1746602;82;21548;-77
2021/10/12 02:13:34;;;;;;;23.47;13.00;;;;;;;7.43;100.00;100082.36;1746245;82;21050;-78
2021/10/12 02:16:01;;;;;;;23.13;12.27;;;;;;;7.39;100.00;100074.58;1746496;82;21509;-78
2021/10/12 02:18:28;;;;;;;22.53;13.30;;;;;;;7.37;100.00;100076.58;1746268;82;21035;-77
2021/10/12 02:20:55;;;;;;;25.37;12.90;;;;;;;7.34;100.00;100074.17;1746506;82;21022;-78
2021/10/12 02:23:21;;;;;;;26.20;13.10;;;;;;;7.31;100.00;100070.94;1746208;82;21006;-78
2021/10/12 02:25:48;;;;;;;29.37;14.33;;;;;;;7.28;100.00;100065.84;1746630;82;20990;-77
2021/10/12 02:28:15;;;;;;;25.03;12.73;;;;;;;7.26;100.00;100066.50;1746107;82;21081;-77
2021/10/12 02:30:42;;;;;;;25.80;13.33;;;;;;;7.23;100.00;100069.84;1746237;82;21050;-78
2021/10/12 02:33:08;;;;;;;24.77;13.70;;;;;;;7.21;100.00;100058.89;1746210;82;21513;-78
2021/10/12 02:35:35;;;;;;;25.57;13.27;;;;;;;7.19;100.00;100063.59;1746504;82;21077;-78
2021/10/12 02:38:01;;;;;;;25.93;12.80;;;;;;;7.17;100.00;100055.66;1746490;82;21064;-78
2021/10/12 02:40:28;;;;;;;23.13;12.33;;;;;;;7.17;100.00;100050.76;1725246;82;21461;-77
2021/10/12 02:42:55;;;;;;;25.27;13.73;;;;;;;7.16;100.00;100055.30;1733341;83;21544;-78
2021/10/12 02:45:22;;;;;;;24.77;12.80;;;;;;;7.16;100.00;100053.11;1733620;83;21057;-78
2021/10/12 02:47:49;;;;;;;26.33;13.03;;;;;;;7.16;100.00;100045.05;1695427;83;21085;-77
2021/10/12 02:50:15;;;;;;;25.47;13.67;;;;;;;7.14;100.00;100042.50;1705539;84;21016;-78
2021/10/12 02:52:42;;;;;;;29.37;13.50;;;;;;;7.14;100.00;100037.63;1688147;85;21086;-78
2021/10/12 02:55:09;;;;;;;27.23;12.77;;;;;;;7.11;100.00;100040.11;1705247;84;21026;-78
2021/10/12 02:57:36;;;;;;;25.90;13.23;;;;;;;7.10;100.00;100035.73;1705103;83;21074;-78
2021/10/12 03:00:05;;;;;;;23.93;12.40;;;;;;;7.08;100.00;100031.48;1705323;84;21027;-77
2021/10/12 03:02:32;;;;;;;26.17;13.03;;;;;;;7.06;100.00;100034.32;1705455;84;21035;-77
2021/10/12 03:04:59;;;;;;;24.13;12.37;;;;;;;7.05;100.00;100032.65;1705269;84;21067;-77
2021/10/12 03:07:25;;;;;;;24.57;13.37;;;;;;;7.04;100.00;100034.97;1705477;84;21067;-78
2021/10/12 03:09:52;;;;;;;22.53;12.93;;;;;;;7.02;100.00;100032.94;1705077;84;21050;-78
2021/10/12 03:12:19;;;;;;;28.90;15.07;;;;;;;6.99;100.00;100034.09;1675650;86;21552;-77
2021/10/12 03:14:45;;;;;;;32.47;14.40;;;;;;;6.99;100.00;100033.22;1738377;82;21054;-78
2021/10/12 03:17:13;;;;;;;31.00;15.83;;;;;;;6.98;100.00;100036.92;1738039;82;21049;-78
2021/10/12 03:19:40;;;;;;;30.27;15.13;;;;;;;6.96;100.00;100037.58;1738118;82;20988;-80
2021/10/12 03:22:12;;;;;;;27.27;14.73;;;;;;;6.95;100.00;100036.70;1737967;82;21062;-81
2021/10/12 03:24:39;;;;;;;28.60;15.67;;;;;;;6.95;100.00;100028.64;1738397;82;21528;-82
2021/10/12 03:27:07;;;;;;;33.60;17.53;;;;;;;6.94;100.00;100031.00;1738305;82;21015;-80
2021/10/12 03:29:36;;;;;;;35.40;18.93;;;;;;;6.92;100.00;100028.09;1737982;82;21042;-80
2021/10/12 03:32:03;;;;;;;30.03;17.10;;;;;;;6.89;100.00;100018.97;1738323;82;21046;-81
2021/10/12 03:34:32;;;;;;;27.67;16.13;;;;;;;6.88;100.00;100018.64;1704602;82;21547;-78
2021/10/12 03:36:59;;;;;;;29.30;14.90;;;;;;;6.87;100.00;100025.00;1703482;84;21054;-77
2021/10/12 03:39:26;;;;;;;27.57;13.67;;;;;;;6.83;100.00;100022.63;1703671;84;20996;-78
2021/10/12 03:41:52;;;;;;;26.83;13.33;;;;;;;6.82;100.00;100024.11;1703423;84;21467;-78
2021/10/12 03:44:20;;;;;;;27.43;13.60;;;;;;;6.81;100.00;100033.16;1703278;84;21514;-78
2021/10/12 03:46:47;;;;;;;26.40;13.40;;;;;;;6.78;100.00;100031.62;1723118;82;21471;-78
2021/10/12 03:49:14;;;;;;;28.73;14.13;;;;;;;6.76;100.00;100032.23;1741783;82;21547;-78
2021/10/12 03:51:43;;;;;;;25.83;13.17;;;;;;;6.74;100.00;100035.58;1741980;82;21096;-78
2021/10/12 03:54:11;;;;;;;24.87;13.00;;;;;;;6.71;100.00;100039.92;1742243;82;21065;-78
2021/10/12 03:56:38;;;;;;;26.90;12.80;;;;;;;6.70;100.00;100026.63;1742120;82;21165;-78
2021/10/12 03:59:05;;;;;;;27.00;12.00;;;;;;;6.69;100.00;100032.98;1742307;82;21057;-79
2021/10/12 04:01:31;;;;;;;22.73;11.87;;;;;;;6.71;100.00;100036.37;1742138;82;21563;-77
2021/10/12 04:04:00;;;;;;;24.93;12.13;;;;;;;6.72;100.00;100039.41;1741855;82;20990;-82
2021/10/12 04:06:27;;;;;;;25.67;12.07;;;;;;;6.75;100.00;100044.00;1742206;82;21547;-81
2021/10/12 04:08:54;;;;;;;25.30;12.37;;;;;;;6.76;100.00;100037.61;1742517;82;20998;-83
2021/10/12 04:11:22;;;;;;;24.23;11.83;;;;;;;6.77;100.00;100038.48;1742034;82;21057;-82
2021/10/12 04:13:49;;;;;;;27.43;12.80;;;;;;;6.78;100.00;100032.09;1742311;82;21014;-82
2021/10/12 04:16:17;;;;;;;25.90;10.53;;;;;;;6.80;100.00;100042.23;1742075;82;20998;-82
2021/10/12 04:18:44;;;;;;;28.37;11.77;;;;;;;6.83;100.00;100040.57;1742306;82;21056;-80
2021/10/12 04:21:10;;;;;;;23.90;11.60;;;;;;;6.87;100.00;100047.84;1742157;82;21049;-81
2021/10/12 04:23:38;;;;;;;24.30;11.37;;;;;;;6.91;100.00;100056.82;1742102;82;21026;-81
2021/10/12 04:26:08;;;;;;;22.60;10.67;;;;;;;6.99;100.00;100049.35;1742172;82;21021;-81
2021/10/12 04:28:33;;;;;;;25.87;11.33;;;;;;;7.04;100.00;100042.53;1742213;82;21014;-80
2021/10/12 04:31:00;;;;;;;27.03;11.20;;;;;;;7.13;100.00;100038.11;1742509;82;21170;-80
2021/10/12 04:33:27;;;;;;;24.17;10.37;;;;;;;7.20;100.00;100037.86;1756021;79;21084;-80
2021/10/12 04:35:53;;;;;;;23.17;10.63;;;;;;;7.30;100.00;100035.64;1773758;81;21017;-80
2021/10/12 04:38:20;;;;;;;23.27;10.63;;;;;;;7.40;100.00;100047.17;1772996;81;21026;-81
2021/10/12 04:40:47;;;;;;;23.00;10.63;;;;;;;7.48;100.00;100041.89;1734824;83;20997;-80
2021/10/12 04:43:14;;;;;;;22.93;10.67;;;;;;;7.57;100.00;100033.41;1735391;83;21423;-80
2021/10/12 04:45:40;;;;;;;21.60;10.77;;;;;;;7.64;100.00;100027.77;1703147;82;20977;-80
2021/10/12 04:48:07;;;;;;;24.30;10.77;;;;;;;7.73;100.00;100031.39;1747552;82;21025;-80
2021/10/12 04:50:35;;;;;;;22.53;10.53;;;;;;;7.80;100.00;100021.70;1716375;82;21082;-81
2021/10/12 04:53:02;;;;;;;21.83;9.80;;;;;;;7.88;100.00;100027.66;1747540;82;21548;-80
2021/10/12 04:55:30;;;;;;;21.83;10.37;;;;;;;7.97;100.00;100016.81;1747274;82;21010;-82
2021/10/12 04:57:58;;;;;;;21.43;9.97;;;;;;;8.07;100.00;100019.92;1747182;82;21086;-82
2021/10/12 05:00:25;;;;;;;22.10;9.70;;;;;;;8.15;100.00;100013.27;1747001;82;21516;-80
2021/10/12 05:02:52;;;;;;;20.73;9.93;;;;;;;8.23;100.00;100006.58;1747387;82;20983;-82
2021/10/12 05:05:19;;;;;;;22.00;10.17;;;;;;;8.30;100.00;100006.29;1747736;82;21051;-82
2021/10/12 05:07:47;;;;;;;23.93;10.97;;;;;;;8.36;100.00;100005.67;1747268;82;21085;-79
2021/10/12 05:10:15;;;;;;;24.47;10.90;;;;;;;8.41;100.00;100009.73;1747016;82;21078;-78
2021/10/12 05:12:42;;;;;;;27.30;14.70;;;;;;;8.46;100.00;100002.89;1746731;82;21042;-77
2021/10/12 05:15:09;;;;;;;37.43;24.30;;;;;;;8.55;100.00;100006.02;1746717;82;21066;-77
2021/10/12 05:17:38;;;;;;;28.00;14.43;;;;;;;8.65;100.00;100013.14;1746686;82;21065;-75
2021/10/12 05:20:07;;;;;;;34.37;18.83;;;;;;;8.77;100.00;100012.38;1746691;82;21066;-77
2021/10/12 05:22:34;;;;;;;29.10;12.67;;;;;;;8.86;100.00;100005.50;1746401;82;21125;-76
2021/10/12 05:25:01;;;;;;;22.70;10.43;;;;;;;8.97;100.00;100003.53;1747147;82;21520;-75
2021/10/12 05:27:28;;;;;;;23.00;10.30;;;;;;;9.05;100.00;100003.58;1746598;82;21069;-76
2021/10/12 05:29:54;;;;;;;19.32;9.95;;;;;;;9.11;100.00;99999.70;1746662;82;21524;-75
2021/10/12 05:32:21;;;;;;;22.20;10.60;;;;;;;9.17;100.00;100000.94;1746639;82;21011;-74
2021/10/12 05:34:47;;;;;;;26.03;13.93;;;;;;;9.26;100.00;99997.73;1739537;82;21027;-75
2021/10/12 05:37:14;;;;;;;30.17;17.77;;;;;;;9.34;100.00;99995.58;1738623;82;21572;-76
2021/10/12 05:39:41;;;;;;;20.87;11.10;;;;;;;9.42;100.00;99991.05;1734436;82;21017;-75
2021/10/12 05:42:08;;;;;;;18.53;9.67;;;;;;;9.49;100.00;99996.13;1731465;83;21059;-76
2021/10/12 05:44:37;;;;;;;20.93;9.77;;;;;;;9.55;100.00;99989.73;1731688;83;21086;-76
2021/10/12 05:47:04;;;;;;;21.30;10.03;;;;;;;9.59;100.00;99995.13;1735048;83;20955;-77
2021/10/12 05:49:31;;;;;;;25.27;11.28;;;;;;;9.61;100.00;99988.55;1736334;83;21054;-77
2021/10/12 05:52:01;;;;;;;39.70;24.20;;;;;;;9.64;100.00;99990.92;1736711;82;21007;-76
2021/10/12 05:54:30;;;;;;;26.27;12.37;;;;;;;9.69;100.00;99982.33;1736540;83;21042;-74
2021/10/12 05:56:59;;;;;;;22.50;11.07;;;;;;;9.74;100.00;99983.16;1736441;82;21050;-76
2021/10/12 05:59:25;;;;;;;24.35;10.85;;;;;;;9.81;100.00;99980.13;1736534;82;21051;-74
2021/10/12 06:01:52;;;;;;;81.30;54.03;;;;;;;9.93;100.00;99980.66;1738226;81;21075;-75
2021/10/12 06:04:18;;;;;;;66.22;41.63;;;;;;;10.08;100.00;99977.63;1748147;81;21022;-72
2021/10/12 06:06:45;;;;;;;22.37;11.95;;;;;;;10.23;100.00;99974.58;1743629;82;21045;-75
2021/10/12 06:09:12;;;;;;;20.37;9.63;;;;;;;10.36;100.00;99978.66;1743959;82;21084;-77
2021/10/12 06:11:39;;;;;;;22.13;9.50;;;;;;;10.47;100.00;99970.70;1743868;82;21022;-74
2021/10/12 06:14:06;;;;;;;26.93;10.08;;;;;;;10.57;100.00;99974.89;1743716;82;21027;-75
2021/10/12 06:16:32;;;;;;;29.48;11.03;;;;;;;10.67;100.00;99963.86;1743819;82;21485;-74
2021/10/12 06:18:59;;;;;;;23.25;9.70;;;;;;;10.81;100.00;99968.55;1743761;82;21478;-73
2021/10/12 06:21:26;;;;;;;21.75;9.38;;;;;;;10.96;100.00;99962.41;1743421;82;21034;-74
2021/10/12 06:23:53;;;;;;;19.80;9.03;;;;;;;11.10;100.00;99968.95;1743637;82;21026;-75
2021/10/12 06:26:19;;;;;;;20.75;9.73;;;;;;;11.24;100.00;99960.59;1743387;82;21033;-74
2021/10/12 06:28:46;;;;;;;24.47;10.13;;;;;;;11.38;100.00;99957.13;1743423;82;21019;-75
2021/10/12 06:31:14;;;;;;;34.90;10.95;;;;;;;11.55;100.00;99957.88;1743736;82;21046;-74
2021/10/12 06:33:41;;;;;;;31.57;11.35;;;;;;;11.69;100.00;99961.69;1742107;81;21065;-76
2021/10/12 06:36:08;;;;;;;26.77;10.60;;;;;;;11.81;100.00;99953.95;1724839;82;21042;-77
2021/10/12 06:38:37;;;;;;;33.83;11.50;;;;;;;11.99;100.00;99955.89;1724121;83;21045;-78
2021/10/12 06:41:04;;;;;;;24.95;10.03;;;;;;;12.23;100.00;99952.09;1724505;83;21508;-80
2021/10/12 06:43:31;;;;;;;27.45;10.00;;;;;;;12.52;100.00;99951.30;1725241;83;20981;-80
2021/10/12 06:45:58;;;;;;;25.50;12.30;;;;;;;12.79;100.00;99951.69;1727480;83;21003;-81
2021/10/12 06:48:25;;;;;;;35.08;12.13;;;;;;;13.02;100.00;99941.23;1730099;82;21492;-82
2021/10/12 06:50:52;;;;;;;32.13;11.78;;;;;;;13.21;100.00;99939.78;1726194;83;21005;-82
2021/10/12 06:53:18;;;;;;;19.70;8.93;;;;;;;13.37;100.00;99936.89;1725188;83;21484;-79
2021/10/12 06:55:45;;;;;;;25.35;10.32;;;;;;;13.56;100.00;99934.56;1724929;83;20989;-80
2021/10/12 06:58:12;;;;;;;33.98;10.98;;;;;;;13.68;100.00;99935.20;1724653;83;21483;-80
2021/10/12 07:00:41;;;;;;;36.33;12.13;;;;;;;13.85;100.00;99934.44;1735157;82;21007;-79
2021/10/12 07:03:08;;;;;;;23.12;10.00;;;;;;;14.03;100.00;99928.53;1731832;82;21053;-76
2021/10/12 07:05:35;;;;;;;24.15;10.30;;;;;;;14.18;100.00;99928.45;1716594;82;20983;-74
2021/10/12 07:08:02;;;;;;;22.60;9.88;;;;;;;14.27;100.00;99926.92;1698192;82;20979;-75
2021/10/12 07:10:29;;;;;;;22.40;9.60;;;;;;;14.27;100.00;99923.72;1709004;82;20980;-76
2021/10/12 07:12:56;;;;;;;20.50;10.98;;;;;;;14.36;100.00;99927.95;1679468;85;21050;-84
2021/10/12 07:15:23;;;;;;;24.87;11.85;;;;;;;14.58;100.00;99929.27;1710526;82;21084;-81
2021/10/12 07:17:52;;;;;;;40.52;27.32;;;;;;;14.84;100.00;99922.28;1705554;82;21017;-79
2021/10/12 07:20:19;;;;;;;36.38;22.62;;;;;;;15.08;100.00;99910.05;1736653;82;20987;-80
2021/10/12 07:22:46;;;;;;;39.83;22.60;;;;;;;15.08;100.00;99910.05;1709659;82;21029;-86
2021/10/12 07:25:13;;;;;;;29.42;16.87;;;;;;;15.32;100.00;99919.56;1703044;84;21041;-88
2021/10/12 07:27:40;;;;;;;22.35;10.15;;;;;;;15.83;100.00;99907.30;1705326;84;21033;-86
2021/10/12 07:30:09;;;;;;;19.87;10.18;;;;;;;15.83;100.00;99907.30;1708300;83;21059;-88
2021/10/12 07:32:36;;;;;;;22.55;9.10;;;;;;;15.92;100.00;99909.63;1697613;84;20976;-80
2021/10/12 07:35:05;;;;;;;17.60;8.53;;;;;;;15.96;100.00;99913.30;1710918;83;21016;-81
2021/10/12 07:37:34;;;;;;;24.30;12.90;;;;;;;16.08;100.00;99915.72;1726834;81;21014;-80
2021/10/12 07:40:01;;;;;;;18.37;9.18;;;;;;;16.08;100.00;99915.72;1719512;82;21011;-78
2021/10/12 07:42:28;;;;;;;21.40;9.58;;;;;;;16.17;100.00;99908.16;1718723;82;21020;-81
2021/10/12 07:44:55;;;;;;;17.45;8.80;;;;;;;16.23;100.00;99910.03;1719070;83;21060;-81
2021/10/12 07:47:22;;;;;;;20.48;8.85;;;;;;;16.32;100.00;99915.08;1719831;82;21046;-78
2021/10/12 07:49:49;;;;;;;17.45;8.23;;;;;;;16.55;100.00;99911.02;1737778;82;21029;-80
2021/10/12 07:52:16;;;;;;;16.77;8.08;;;;;;;16.74;100.00;99893.45;1722930;82;21041;-77
2021/10/12 07:54:48;;;;;;;18.92;8.35;;;;;;;16.93;100.00;99899.91;1717419;82;21026;-75
2021/10/12 07:57:16;;;;;;;17.98;7.58;;;;;;;17.19;100.00;99894.86;1669427;86;21038;-77
2021/10/12 07:59:42;;;;;;;13.40;7.58;;;;;;;17.50;100.00;99891.86;1718065;82;21508;-83
2021/10/12 08:02:13;;;;;;;19.98;7.87;;;;;;;17.78;100.00;99890.92;1712091;82;21132;-80
2021/10/12 08:04:42;;;;;;;23.27;8.33;;;;;;;17.95;100.00;99884.38;1724169;82;21007;-81
2021/10/12 08:07:09;;;;;;;24.45;9.23;;;;;;;18.06;100.00;99884.21;1733327;82;21006;-86
2021/10/12 08:09:36;;;;;;;20.88;8.40;;;;;;;18.26;100.00;99880.45;1748218;82;21456;-79
2021/10/12 08:12:04;;;;;;;24.72;11.73;;;;;;;18.46;100.00;99881.61;1690346;83;21002;-81
2021/10/12 08:14:35;;;;;;;25.52;13.20;;;;;;;18.55;100.00;99875.59;1719601;82;21002;-80
2021/10/12 08:17:00;;;;;;;24.82;11.55;;;;;;;18.71;100.00;99869.22;1723954;82;21005;-75
2021/10/12 08:19:27;;;;;;;18.40;8.88;;;;;;;18.87;100.00;99865.05;1719938;82;21065;-78
2021/10/12 08:21:55;;;;;;;27.82;11.75;;;;;;;18.90;100.00;99863.23;1720860;83;21012;-82
2021/10/12 08:24:22;;;;;;;23.92;14.05;;;;;;;18.97;100.00;99863.44;1731809;82;20967;-82
2021/10/12 08:26:49;;;;;;;21.07;8.80;;;;;;;19.19;100.00;99853.88;1723282;82;21034;-78
2021/10/12 08:29:18;;;;;;;18.00;8.10;;;;;;;19.34;100.00;99851.02;1717564;82;21042;-83
2021/10/12 08:31:47;;;;;;;20.37;7.78;;;;;;;19.44;100.00;99848.24;1731064;82;20995;-77
2021/10/12 08:34:16;;;;;;;20.60;9.75;;;;;;;19.60;100.00;99845.36;1757248;80;21026;-78
2021/10/12 08:36:43;;;;;;;14.87;8.05;;;;;;;19.75;100.00;99839.48;1738713;80;21031;-76
2021/10/12 08:39:10;;;;;;;21.05;8.75;;;;;;;20.01;100.00;99838.16;1738902;82;21011;-77
2021/10/12 08:41:53;;;;;;;15.50;8.00;;;;;;;20.32;100.00;99836.97;1739232;82;21051;-84
2021/10/12 08:44:20;;;;;;;16.75;8.68;;;;;;;20.51;100.00;99815.70;1771880;81;21480;-86
2021/10/12 08:46:48;;;;;;;15.83;6.70;;;;;;;20.61;100.00;99820.55;1770797;81;21021;-82
2021/10/12 08:49:15;;;;;;;18.20;8.05;;;;;;;20.49;100.00;99809.07;1765554;81;21065;-83
2021/10/12 08:51:43;;;;;;;29.15;8.08;;;;;;;20.53;100.00;99806.67;1766181;81;21006;-81
2021/10/12 08:54:11;;;;;;;15.90;7.47;;;;;;;20.56;100.00;99809.48;1766587;81;21085;-87
2021/10/12 08:56:39;;;;;;;18.65;8.10;;;;;;;20.59;100.00;99796.63;1766009;81;21546;-82
2021/10/12 08:59:08;;;;;;;16.77;7.80;;;;;;;20.72;100.00;99800.51;1738431;81;20996;-83
2021/10/12 09:02:02;;;;;;;16.90;7.90;;;;;;;20.94;100.00;99797.91;1751916;81;21089;-81
2021/10/12 09:04:42;;;;;;;;;;;;;;;21.09;100.00;99793.26;1692359;84;21096;-83
2021/10/12 09:07:18;;;;;;;12.58;6.97;;;;;;;21.20;100.00;99786.03;1665110;86;20162;-81
2021/10/12 09:09:45;;;;;;;18.05;7.55;;;;;;;21.21;100.00;99784.41;1671588;85;20974;-79
2021/10/12 09:12:12;;;;;;;15.68;7.25;;;;;;;21.23;100.00;99773.99;1693565;85;21320;-79
2021/10/12 09:14:58;;;;;;;15.72;7.08;;;;;;;21.20;100.00;99771.73;1679117;85;21080;-83
2021/10/12 09:17:43;;;;;;;19.50;7.58;;;;;;;21.26;100.00;99771.27;1668266;86;21041;-79
2021/10/12 09:20:26;;;;;;;16.42;7.60;;;;;;;21.25;100.00;99760.00;1641674;86;21484;-83
2021/10/12 09:23:11;;;;;;;19.02;8.38;;;;;;;21.38;100.00;99758.84;1641553;87;20987;-79
2021/10/12 09:25:41;;;;;;;19.23;7.97;;;;;;;21.28;97.44;99749.86;1641761;87;21063;-83
2021/10/12 09:28:24;;;;;;;23.02;8.95;;;;;;;21.20;100.00;99747.54;1640769;87;21703;-79
2021/10/12 09:30:54;;;;;;;21.85;9.18;;;;;;;21.20;100.00;99746.98;1619525;88;21106;-86
2021/10/12 09:33:21;;;;;;;18.40;8.23;;;;;;;21.24;100.00;99741.27;1639893;87;20994;-85
2021/10/12 09:35:48;;;;;;;19.87;9.35;;;;;;;21.28;100.00;99741.61;1645034;86;21024;-77
2021/10/12 09:38:15;;;;;;;23.18;10.28;;;;;;;21.17;100.00;99737.03;1644555;86;21038;-84
2021/10/12 09:40:44;;;;;;;20.20;8.50;;;;;;;21.11;100.00;99734.73;1644439;86;21037;-75
2021/10/12 09:43:16;;;;;;;23.70;8.08;;;;;;;21.13;100.00;99735.32;1641760;86;21022;-82
2021/10/12 09:45:44;;;;;;;16.45;7.92;;;;;;;21.27;100.00;99729.52;1641065;86;21925;-76
2021/10/12 09:48:31;;;;;;;130.10;91.80;;;;;;;21.46;100.00;99728.73;1643790;86;20998;-84
2021/10/12 09:51:11;;;;;;;23.27;11.05;;;;;;;21.64;100.00;99724.88;1654383;86;21045;-81
2021/10/12 09:53:39;;;;;;;21.07;9.93;;;;;;;21.85;99.24;99713.12;1667037;86;21088;-81
2021/10/12 09:56:07;;;;;;;17.12;8.80;;;;;;;21.92;96.01;99706.88;1666176;86;21068;-82
2021/10/12 09:58:34;;;;;;;16.48;8.00;;;;;;;21.97;95.49;99710.23;1666363;86;21536;-81
2021/10/12 10:01:06;;;;;;;17.60;8.20;;;;;;;22.07;92.23;99702.67;1685314;84;21031;-81
2021/10/12 10:03:34;;;;;;;19.70;8.58;;;;;;;22.12;91.82;99706.87;1723388;81;21022;-82
2021/10/12 10:06:12;;;;;;;16.90;8.58;;;;;;;22.12;93.98;99706.87;1768423;81;21496;-77
2021/10/12 10:08:50;;;;;;;17.77;6.72;;;;;;;22.09;92.79;99710.13;1768060;80;21383;-78
2021/10/12 10:11:17;;;;;;;27.20;9.30;;;;;;;22.08;91.56;99698.81;1768531;81;21032;-78
2021/10/12 10:13:43;;;;;;;14.87;6.65;;;;;;;22.07;91.21;99696.61;1743947;82;21065;-77
2021/10/12 10:16:10;;;;;;;28.05;16.17;;;;;;;21.98;85.91;99697.59;1744621;81;21544;-77
2021/10/12 10:18:39;;;;;;;24.98;11.85;;;;;;;21.75;89.54;99686.83;1738984;81;21035;-76
2021/10/12 10:21:05;;;;;;;21.33;10.32;;;;;;;21.80;95.90;99685.52;1737569;82;21068;-77
2021/10/12 10:24:11;;;;;;;20.57;8.85;;;;;;;21.89;93.71;99678.48;1732395;83;21102;-79
2021/10/12 10:26:40;;;;;;;15.30;7.00;;;;;;;21.83;90.60;99678.66;1722956;83;21273;-78
2021/10/12 10:29:35;;;;;;;15.32;6.92;;;;;;;21.45;87.91;99676.17;1585317;90;21078;-81
2021/10/12 10:32:00;;;;;;;18.05;7.65;;;;;;;21.04;91.86;99673.59;1615330;88;21095;-77
2021/10/12 10:34:40;;;;;;;21.17;7.05;;;;;;;20.82;100.00;99670.20;1617793;88;21085;-77
2021/10/12 10:37:23;;;;;;;17.15;7.90;;;;;;;21.06;100.00;99675.55;1522305;93;21120;-79
2021/10/12 10:40:06;;;;;;;20.27;10.08;;;;;;;21.40;100.00;99668.66;1566335;92;21658;-79
2021/10/12 10:42:46;;;;;;;13.70;6.95;;;;;;;21.63;95.99;99653.08;1579567;91;21037;-81
2021/10/12 10:45:13;;;;;;;32.42;8.10;;;;;;;21.78;92.63;99666.51;1567440;92;21548;-79
2021/10/12 10:47:51;;;;;;;16.27;7.28;;;;;;;21.77;87.42;99663.45;1584555;91;21030;-82
2021/10/12 10:50:29;;;;;;;13.48;6.65;;;;;;;21.76;87.20;99659.58;1522351;94;21120;-84
2021/10/12 10:52:59;;;;;;;25.23;9.40;;;;;;;21.70;86.36;99650.98;1547021;92;21090;-75
2021/10/12 10:55:31;;;;;;;24.15;13.90;;;;;;;21.74;89.39;99650.75;1551572;91;21139;-81
2021/10/12 10:58:07;;;;;;;;;;;;;;;21.89;91.41;99648.77;1554714;92;21127;-80
2021/10/12 11:00:51;;;;;;;16.02;8.13;;;;;;;22.10;92.62;99641.59;1552895;92;20119;-80
2021/10/12 11:03:35;;;;;;;12.80;7.33;;;;;;;22.26;89.24;99624.71;1552925;92;21124;-81
2021/10/12 11:06:18;;;;;;;18.75;7.40;;;;;;;22.33;85.74;99632.25;1552751;92;21111;-81
2021/10/12 11:09:01;;;;;;;17.60;7.30;;;;;;;22.16;82.94;99633.11;1522414;94;21114;-83
2021/10/12 11:11:35;;;;;;;14.13;7.30;;;;;;;21.83;83.96;99635.45;1521535;94;21171;-81
2021/10/12 11:14:03;;;;;;;21.90;12.47;;;;;;;21.52;87.88;99632.84;1522804;94;21532;-79
2021/10/12 11:16:35;;;;;;;26.57;12.55;;;;;;;21.42;92.56;99629.36;1522822;93;21139;-83
2021/10/12 11:19:03;;;;;;;45.70;33.88;;;;;;;21.34;95.85;99633.94;1522982;94;21154;-83
2021/10/12 11:21:32;;;;;;;27.77;16.82;;;;;;;21.30;98.46;99625.36;1522983;93;21125;-85